Time;durP1;ratioP1;P1;durP2;ratioP2;P2;SDS_P1;SDS_P2;PMS_P1;PMS_P2;Temp;Humidity;BMP_temperature;BMP_pressure;BME280_temperature;BME280_humidity;BME280_pressure;Samples;Min_cycle;Max_cycle;Signal;HPM_P1;HPM_P2
2022/01/04 00:00:44;;;;;;;16.07;2.03;;;8.60;99.90;;;;;;5029582;28;20205;-57
2022/01/04 00:03:10;;;;;;;16.23;2.00;;;8.60;99.90;;;;;;5029581;28;20220;-57
2022/01/04 00:05:36;;;;;;;23.43;2.50;;;8.60;99.90;;;;;;5029887;28;20212;-57
2022/01/04 00:08:07;;;;;;;20.07;2.00;;;8.60;99.90;;;;;;5036384;28;20636;-57
2022/01/04 00:10:33;;;;;;;16.67;1.93;;;8.60;99.90;;;;;;5052359;28;20216;-57
2022/01/04 00:15:44;;;;;;;31.97;2.77;;;8.60;99.90;;;;;;5042824;28;20192;-57
2022/01/04 00:18:10;;;;;;;15.53;2.20;;;8.70;99.90;;;;;;5033598;28;20198;-56
2022/01/04 00:20:36;;;;;;;22.97;2.30;;;8.60;99.90;;;;;;5033377;28;20209;-57
2022/01/04 00:23:02;;;;;;;15.90;2.03;;;8.70;99.90;;;;;;5033000;28;20632;-57
2022/01/04 00:25:29;;;;;;;17.77;2.20;;;8.60;99.90;;;;;;5032727;28;20244;-57
2022/01/04 00:27:54;;;;;;;16.87;2.20;;;8.60;99.90;;;;;;5033502;28;20174;-56
2022/01/04 00:30:20;;;;;;;13.13;2.40;;;8.60;99.90;;;;;;5033127;28;20563;-56
2022/01/04 00:32:46;;;;;;;25.40;2.57;;;8.50;99.90;;;;;;5032784;28;20553;-56
2022/01/04 00:35:13;;;;;;;17.47;2.53;;;8.50;99.90;;;;;;5032885;28;20174;-56
2022/01/04 00:37:39;;;;;;;17.23;2.23;;;7.60;99.90;;;;;;5032491;28;20611;-57
2022/01/04 00:40:05;;;;;;;21.37;2.03;;;8.50;99.90;;;;;;5032842;28;20174;-56
2022/01/04 00:42:31;;;;;;;19.80;2.00;;;8.40;99.90;;;;;;5032397;28;20182;-57
2022/01/04 00:44:57;;;;;;;22.00;2.67;;;8.40;99.90;;;;;;5032810;28;20244;-56
2022/01/04 00:47:39;;;;;;;20.50;2.03;;;8.40;99.90;;;;;;5032455;28;20178;-57
2022/01/04 00:50:05;;;;;;;14.73;2.10;;;8.40;99.90;;;;;;5032777;28;20244;-57
2022/01/04 00:52:31;;;;;;;19.80;2.80;;;8.40;99.90;;;;;;5032412;28;20189;-57
2022/01/04 00:54:57;;;;;;;18.03;2.47;;;8.40;99.90;;;;;;5032699;28;20177;-57
2022/01/04 00:57:23;;;;;;;17.47;1.90;;;8.50;99.90;;;;;;5032472;28;20668;-57
2022/01/04 00:59:48;;;;;;;25.50;2.30;;;8.50;99.90;;;;;;5032671;28;20178;-57
2022/01/04 01:02:14;;;;;;;18.63;2.43;;;8.50;99.90;;;;;;5032135;28;20182;-57
2022/01/04 01:04:40;;;;;;;21.30;2.67;;;8.50;99.90;;;;;;5040875;28;20185;-57
2022/01/04 01:07:06;;;;;;;20.10;2.40;;;8.50;99.90;;;;;;5037727;28;20190;-58
2022/01/04 01:09:36;;;;;;;26.33;2.97;;;8.50;99.90;;;;;;5031687;28;20217;-57
2022/01/04 01:12:02;;;;;;;21.77;2.70;;;8.40;99.90;;;;;;5033807;28;20169;-57
2022/01/04 01:14:28;;;;;;;23.57;2.27;;;8.50;99.90;;;;;;5052258;28;20191;-57
2022/01/04 01:16:54;;;;;;;28.93;2.50;;;8.50;99.90;;;;;;5032113;28;20691;-57
2022/01/04 01:19:21;;;;;;;18.60;2.50;;;8.50;99.90;;;;;;5013418;28;20645;-56
2022/01/04 01:21:47;;;;;;;17.90;2.30;;;8.50;99.90;;;;;;5032144;28;20185;-56
2022/01/04 01:24:12;;;;;;;13.27;1.87;;;8.60;99.90;;;;;;5032053;28;20174;-56
2022/01/04 01:26:38;;;;;;;13.97;2.07;;;8.50;99.90;;;;;;5031902;28;20201;-56
2022/01/04 01:29:04;;;;;;;17.33;2.67;;;8.60;99.90;;;;;;5031999;28;20575;-56
2022/01/04 01:31:30;;;;;;;17.73;2.67;;;8.60;99.90;;;;;;5031217;28;20239;-58
2022/01/04 01:33:56;;;;;;;26.43;2.77;;;8.60;99.90;;;;;;5031683;28;20276;-58
2022/01/04 01:36:22;;;;;;;24.27;2.93;;;8.60;99.90;;;;;;5031533;28;20266;-56
2022/01/04 01:38:48;;;;;;;20.33;3.40;;;9.20;99.90;;;;;;5031829;28;20261;-56
2022/01/04 01:41:14;;;;;;;20.77;3.23;;;8.70;99.90;;;;;;5013744;28;20268;-56
2022/01/04 01:43:40;;;;;;;20.37;3.20;;;8.60;99.90;;;;;;5031173;28;20222;-56
2022/01/04 01:46:05;;;;;;;20.47;2.97;;;8.60;99.90;;;;;;5031258;28;20180;-57
2022/01/04 01:48:31;;;;;;;19.20;2.27;;;8.60;99.90;;;;;;5031428;28;20290;-56
2022/01/04 01:50:57;;;;;;;18.67;2.60;;;8.60;99.90;;;;;;5031487;28;20538;-56
2022/01/04 01:53:23;;;;;;;23.03;2.70;;;8.60;99.90;;;;;;5013406;28;20174;-56
2022/01/04 01:55:50;;;;;;;30.73;3.60;;;8.60;99.90;;;;;;5031419;28;20276;-56
2022/01/04 01:58:16;;;;;;;23.57;3.67;;;8.50;99.90;;;;;;5031377;28;20702;-57
2022/01/04 02:00:41;;;;;;;27.93;3.30;;;8.50;99.90;;;;;;5031182;28;20185;-56
2022/01/04 02:03:07;;;;;;;17.80;2.50;;;8.50;99.90;;;;;;5031304;28;20173;-56
2022/01/04 02:05:33;;;;;;;20.63;2.53;;;8.40;99.90;;;;;;5031233;28;20177;-56
2022/01/04 02:08:01;;;;;;;30.43;3.13;;;8.40;99.90;;;;;;5031159;28;20181;-57
2022/01/04 02:10:27;;;;;;;30.43;2.93;;;8.40;99.90;;;;;;5030599;28;20206;-56
2022/01/04 02:12:54;;;;;;;17.80;2.30;;;8.40;99.90;;;;;;5030872;28;20324;-56
2022/01/04 02:15:22;;;;;;;18.90;2.77;;;8.40;99.90;;;;;;5042489;28;20185;-57
2022/01/04 02:17:48;;;;;;;33.53;3.17;;;8.30;99.90;;;;;;5048228;28;20184;-55
2022/01/04 02:20:15;;;;;;;23.57;3.13;;;8.30;99.90;;;;;;5031212;28;20221;-56
2022/01/04 02:22:41;;;;;;;22.63;2.90;;;8.30;99.90;;;;;;5031078;28;20634;-56
2022/01/04 02:25:09;;;;;;;27.03;2.80;;;8.20;99.90;;;;;;5030835;28;20700;-55
2022/01/04 02:27:37;;;;;;;21.17;3.03;;;8.30;99.90;;;;;;5030862;28;20674;-56
2022/01/04 02:30:06;;;;;;;24.53;2.40;;;8.30;99.90;;;;;;5031224;28;20209;-55
2022/01/04 02:32:32;;;;;;;26.10;2.83;;;8.30;99.90;;;;;;5029996;28;20169;-55
2022/01/04 02:34:58;;;;;;;18.67;2.90;;;8.30;99.90;;;;;;5030691;28;20551;-56
2022/01/04 02:37:26;;;;;;;18.97;2.50;;;8.30;99.90;;;;;;5030589;28;20185;-55
2022/01/04 02:39:54;;;;;;;19.47;2.93;;;8.40;99.90;;;;;;5030446;28;20667;-56
2022/01/04 02:42:20;;;;;;;19.27;2.93;;;8.40;99.90;;;;;;5030452;28;20189;-55
2022/01/04 02:44:46;;;;;;;29.83;3.23;;;8.40;99.90;;;;;;5030225;28;20249;-55
2022/01/04 02:47:13;;;;;;;28.37;3.00;;;8.40;99.90;;;;;;5030139;28;20552;-56
2022/01/04 02:49:39;;;;;;;25.60;3.00;;;8.40;99.90;;;;;;5030349;28;20217;-55
2022/01/04 02:52:06;;;;;;;23.70;3.07;;;8.40;99.90;;;;;;5030705;28;20196;-56
2022/01/04 02:54:32;;;;;;;26.73;3.03;;;8.50;99.90;;;;;;5030398;28;20184;-55
2022/01/04 02:56:57;;;;;;;21.30;3.13;;;8.40;99.90;;;;;;5030315;28;20548;-55
2022/01/04 02:59:23;;;;;;;27.83;2.90;;;8.40;99.90;;;;;;5030523;28;20173;-55
2022/01/04 03:01:49;;;;;;;17.33;3.00;;;8.40;99.90;;;;;;5012535;28;20178;-56
2022/01/04 03:04:15;;;;;;;22.53;3.20;;;8.40;99.90;;;;;;5027263;28;20178;-55
2022/01/04 03:06:40;;;;;;;26.00;3.03;;;8.40;99.90;;;;;;5030317;28;20203;-56
2022/01/04 03:09:06;;;;;;;27.47;3.33;;;8.40;99.90;;;;;;5029729;28;20564;-55
2022/01/04 03:11:33;;;;;;;28.90;3.30;;;8.40;99.90;;;;;;5030106;28;20174;-56
2022/01/04 03:14:00;;;;;;;22.40;3.17;;;8.40;99.90;;;;;;5030057;28;20181;-55
2022/01/04 03:16:26;;;;;;;31.43;3.23;;;8.30;99.90;;;;;;5030171;28;20277;-55
2022/01/04 03:19:06;;;;;;;20.87;2.77;;;8.30;99.90;;;;;;5042438;28;20652;-55
2022/01/04 03:21:35;;;;;;;19.00;2.53;;;8.30;99.90;;;;;;5041949;28;20209;-55
2022/01/04 03:24:03;;;;;;;29.33;3.00;;;8.30;99.90;;;;;;5030242;28;20535;-56
2022/01/04 03:26:30;;;;;;;26.00;2.83;;;8.20;99.90;;;;;;5030181;28;20174;-55
2022/01/04 03:28:56;;;;;;;18.40;2.40;;;8.20;99.90;;;;;;5030325;28;20672;-55
2022/01/04 03:31:22;;;;;;;25.47;3.00;;;8.10;99.90;;;;;;5030005;28;20174;-55
2022/01/04 03:33:48;;;;;;;24.50;2.97;;;8.10;99.90;;;;;;5030077;28;20232;-56
2022/01/04 03:36:14;;;;;;;20.97;2.70;;;8.10;99.90;;;;;;5029999;28;20264;-56
2022/01/04 03:38:42;;;;;;;24.30;2.77;;;8.00;99.90;;;;;;5030173;28;20220;-56
2022/01/04 03:41:08;;;;;;;30.03;2.67;;;8.00;99.90;;;;;;5030110;28;20219;-56
2022/01/04 03:43:34;;;;;;;22.57;3.10;;;8.00;99.90;;;;;;5031918;28;20318;-56
2022/01/04 03:45:59;;;;;;;25.40;2.67;;;8.00;99.90;;;;;;5033943;28;20174;-56
2022/01/04 03:48:25;;;;;;;26.47;2.90;;;8.00;99.90;;;;;;5033614;28;20502;-56
2022/01/04 03:50:51;;;;;;;32.07;2.87;;;7.90;99.90;;;;;;5033506;28;20177;-56
2022/01/04 03:53:17;;;;;;;26.97;3.53;;;7.90;99.90;;;;;;5033687;28;20267;-56
2022/01/04 03:55:42;;;;;;;26.03;3.37;;;7.90;99.90;;;;;;5015887;28;20644;-56
2022/01/04 03:58:09;;;;;;;17.90;2.70;;;7.90;99.90;;;;;;5033689;28;20196;-56
2022/01/04 04:00:34;;;;;;;30.00;3.80;;;7.90;99.90;;;;;;5033395;28;20174;-56
2022/01/04 04:03:00;;;;;;;20.03;3.03;;;7.80;99.90;;;;;;5031443;28;20660;-56
2022/01/04 04:05:26;;;;;;;26.73;3.03;;;7.90;99.90;;;;;;5033354;28;20544;-56
2022/01/04 04:07:52;;;;;;;25.63;3.30;;;7.90;99.90;;;;;;5033441;28;20261;-57
2022/01/04 04:10:17;;;;;;;23.60;2.90;;;7.90;99.90;;;;;;5033114;28;20292;-57
2022/01/04 04:12:43;;;;;;;28.10;3.07;;;7.90;99.90;;;;;;5033099;28;20188;-56
2022/01/04 04:15:10;;;;;;;16.07;2.63;;;7.90;99.90;;;;;;5033309;28;20209;-56
2022/01/04 04:17:36;;;;;;;19.87;2.93;;;7.90;99.90;;;;;;5033086;28;20188;-59
2022/01/04 04:20:04;;;;;;;24.50;2.97;;;7.90;99.90;;;;;;5032707;28;20181;-56
2022/01/04 04:22:29;;;;;;;20.87;2.73;;;7.90;99.90;;;;;;5046622;28;20246;-56
2022/01/04 04:24:55;;;;;;;33.07;3.70;;;7.90;99.90;;;;;;5050156;28;20238;-56
2022/01/04 04:27:21;;;;;;;22.83;2.77;;;7.80;99.90;;;;;;5033324;28;20182;-56
2022/01/04 04:29:47;;;;;;;21.87;2.57;;;7.50;99.90;;;;;;5032547;28;20795;-56
2022/01/04 04:32:12;;;;;;;31.50;3.17;;;7.90;99.90;;;;;;5032971;28;20261;-56
2022/01/04 04:34:39;;;;;;;26.40;3.10;;;7.90;99.90;;;;;;5032968;28;20632;-56
2022/01/04 04:37:05;;;;;;;21.50;2.80;;;7.90;99.90;;;;;;5032897;28;20177;-56
2022/01/04 04:39:30;;;;;;;26.30;2.97;;;8.00;99.90;;;;;;5032924;28;20177;-56
2022/01/04 04:41:57;;;;;;;17.90;2.70;;;8.00;99.90;;;;;;5032850;28;20579;-56
2022/01/04 04:44:23;;;;;;;21.97;2.20;;;8.00;99.90;;;;;;5014815;28;20245;-56
2022/01/04 04:46:49;;;;;;;23.73;2.90;;;8.00;99.90;;;;;;5005369;28;20202;-56
2022/01/04 04:49:15;;;;;;;28.93;3.70;;;8.00;99.90;;;;;;5018355;28;20212;-56
2022/01/04 04:51:42;;;;;;;31.23;3.30;;;8.10;99.90;;;;;;5032468;28;20204;-56
2022/01/04 04:54:08;;;;;;;26.97;2.60;;;8.10;99.90;;;;;;5031779;28;20209;-56
2022/01/04 04:56:38;;;;;;;23.73;2.50;;;8.00;99.90;;;;;;5032222;28;20189;-56
2022/01/04 04:59:04;;;;;;;22.77;2.90;;;8.00;99.90;;;;;;5032593;28;20189;-56
2022/01/04 05:01:30;;;;;;;28.13;3.17;;;8.00;99.90;;;;;;5032459;28;20193;-56
2022/01/04 05:03:56;;;;;;;21.47;2.50;;;8.00;99.90;;;;;;5032293;28;20208;-56
2022/01/04 05:06:21;;;;;;;25.13;2.43;;;8.10;99.90;;;;;;5032387;28;20227;-56
2022/01/04 05:08:47;;;;;;;35.77;3.17;;;8.10;99.90;;;;;;5014366;28;20201;-56
2022/01/04 05:11:13;;;;;;;21.53;2.10;;;8.00;99.90;;;;;;5031923;28;20595;-56
2022/01/04 05:13:39;;;;;;;28.47;2.73;;;8.10;99.90;;;;;;5032144;28;20178;-56
2022/01/04 05:16:05;;;;;;;21.83;3.10;;;8.10;99.90;;;;;;5032136;28;20710;-56
2022/01/04 05:18:30;;;;;;;13.10;2.03;;;8.20;99.90;;;;;;5032189;28;20173;-56
2022/01/04 05:20:56;;;;;;;18.10;2.53;;;8.20;99.90;;;;;;5031471;28;20541;-55
2022/01/04 05:23:22;;;;;;;17.20;2.27;;;8.20;99.90;;;;;;5032007;28;20184;-56
2022/01/04 05:25:47;;;;;;;19.10;2.03;;;8.20;99.90;;;;;;5037077;28;20165;-56
2022/01/04 05:28:13;;;;;;;20.93;2.40;;;8.20;99.90;;;;;;5052057;28;20582;-55
2022/01/04 05:30:39;;;;;;;20.87;2.13;;;8.20;99.90;;;;;;5043467;28;20224;-56
2022/01/04 05:33:05;;;;;;;15.87;2.20;;;8.20;99.90;;;;;;5031893;28;20265;-56
2022/01/04 05:35:30;;;;;;;19.33;2.13;;;8.20;99.90;;;;;;5031522;28;20185;-56
2022/01/04 05:37:56;;;;;;;16.87;1.97;;;8.20;99.90;;;;;;5031683;28;20235;-55
2022/01/04 05:40:22;;;;;;;11.87;1.83;;;8.20;99.90;;;;;;5031704;28;20181;-55
2022/01/04 05:42:48;;;;;;;22.20;2.47;;;8.10;99.90;;;;;;5031529;28;20177;-56
2022/01/04 05:45:13;;;;;;;14.90;2.10;;;8.20;99.90;;;;;;5031586;28;20189;-56
2022/01/04 05:47:39;;;;;;;13.43;1.83;;;8.10;99.90;;;;;;5031003;28;20662;-56
2022/01/04 05:50:06;;;;;;;10.17;1.43;;;8.10;99.90;;;;;;5031467;28;20270;-56
2022/01/04 05:52:32;;;;;;;10.93;1.30;;;8.10;99.90;;;;;;5031169;28;20178;-56
2022/01/04 05:54:58;;;;;;;10.07;1.50;;;8.10;99.90;;;;;;5031459;28;20184;-56
2022/01/04 05:57:25;;;;;;;10.13;1.57;;;8.10;99.90;;;;;;5031318;28;20174;-56
2022/01/04 05:59:51;;;;;;;11.33;1.17;;;8.10;99.90;;;;;;5031303;28;20189;-56
2022/01/04 06:02:17;;;;;;;10.60;1.60;;;8.10;99.90;;;;;;5028587;28;20174;-56
2022/01/04 06:04:42;;;;;;;19.97;2.30;;;8.10;99.90;;;;;;5030955;28;20185;-56
2022/01/04 06:07:08;;;;;;;11.37;1.90;;;8.10;99.90;;;;;;5030336;28;20268;-56
2022/01/04 06:09:45;;;;;;;9.27;1.20;;;8.10;99.90;;;;;;5030346;28;20209;-56
2022/01/04 06:15:12;;;;;;;14.60;2.03;;;8.10;99.90;;;;;;4960251;28;20196;-56
2022/01/04 06:17:44;;;;;;;20.00;1.60;;;8.10;99.90;;;;;;5028521;28;20185;-59
2022/01/04 06:20:14;;;;;;;13.80;2.10;;;8.10;99.90;;;;;;5031242;28;20174;-59
2022/01/04 06:22:41;;;;;;;13.83;1.73;;;8.10;99.90;;;;;;5030876;28;20176;-56
2022/01/04 06:25:11;;;;;;;7.90;1.83;;;8.10;99.90;;;;;;5030811;28;20654;-56
2022/01/04 06:27:37;;;;;;;15.90;1.63;;;8.20;99.90;;;;;;5030522;28;20213;-56
2022/01/04 06:30:05;;;;;;;18.17;1.53;;;8.10;99.90;;;;;;5040799;28;20248;-56
2022/01/04 06:35:06;;;;;;;14.37;1.93;;;8.00;99.90;;;;;;3622225;22;20903;-63
2022/01/04 06:37:32;;;;;;;10.30;1.47;;;8.10;99.90;;;;;;5030473;28;20177;-63
2022/01/04 06:39:58;;;;;;;15.27;1.60;;;8.10;99.90;;;;;;5030619;28;20752;-63
2022/01/04 06:42:24;;;;;;;17.47;1.83;;;8.00;99.90;;;;;;5031262;28;20256;-63
2022/01/04 06:44:50;;;;;;;7.33;1.00;;;8.10;99.90;;;;;;5031005;28;20545;-62
2022/01/04 06:47:16;;;;;;;3.47;0.67;;;8.00;99.90;;;;;;5030541;28;20166;-63
2022/01/04 06:49:41;;;;;;;1.17;0.40;;;7.80;99.90;;;;;;5031037;28;20687;-62
2022/01/04 06:52:08;;;;;;;1.73;0.43;;;7.40;99.90;;;;;;5012880;28;20594;-62
2022/01/04 06:54:34;;;;;;;1.27;0.40;;;7.00;99.90;;;;;;5013023;28;20178;-62
2022/01/04 06:57:00;;;;;;;1.30;0.30;;;6.70;99.90;;;;;;5030546;28;20178;-63
2022/01/04 06:59:26;;;;;;;1.50;0.30;;;6.60;99.90;;;;;;5030907;28;20507;-63
2022/01/04 07:01:52;;;;;;;5.20;0.60;;;6.70;99.90;;;;;;5030509;28;20276;-63
2022/01/04 07:04:18;;;;;;;1.13;0.50;;;6.40;99.90;;;;;;5030918;28;20212;-64
2022/01/04 07:06:44;;;;;;;3.47;0.43;;;6.40;99.90;;;;;;5030273;28;20232;-63
2022/01/04 07:09:10;;;;;;;1.17;0.50;;;6.30;99.90;;;;;;5030500;28;20693;-63
2022/01/04 07:11:36;;;;;;;1.67;0.70;;;6.20;99.90;;;;;;5030417;28;20182;-63
2022/01/04 07:14:03;;;;;;;1.77;0.93;;;6.10;99.90;;;;;;5030367;28;20178;-63
2022/01/04 07:16:28;;;;;;;1.53;0.80;;;6.00;99.90;;;;;;5030340;28;20189;-63
2022/01/04 07:18:55;;;;;;;2.43;0.87;;;5.90;99.90;;;;;;5033471;28;20174;-63
2022/01/04 07:21:21;;;;;;;1.83;0.97;;;5.90;99.90;;;;;;5034453;28;20288;-63
2022/01/04 07:23:54;;;;;;;1.33;1.10;;;5.90;99.90;;;;;;5034463;28;20182;-63
2022/01/04 07:26:20;;;;;;;1.83;1.13;;;5.80;99.90;;;;;;5033996;28;20561;-63
2022/01/04 07:28:47;;;;;;;1.97;1.37;;;5.70;99.90;;;;;;5034126;28;20267;-60
2022/01/04 07:31:14;;;;;;;3.00;1.07;;;6.20;99.90;;;;;;5034172;28;20174;-61
2022/01/04 07:33:40;;;;;;;2.00;0.93;;;5.50;99.90;;;;;;5034623;28;20174;-62
2022/01/04 07:36:07;;;;;;;3.37;0.80;;;5.50;99.90;;;;;;5033662;28;20221;-61
2022/01/04 07:38:33;;;;;;;1.27;0.83;;;5.40;99.90;;;;;;5033723;28;20219;-61
2022/01/04 07:40:59;;;;;;;1.70;0.70;;;5.30;99.90;;;;;;5033842;28;20243;-64
2022/01/04 07:43:25;;;;;;;3.60;0.90;;;5.30;99.90;;;;;;5034254;28;20185;-62
2022/01/04 07:45:52;;;;;;;1.10;0.80;;;5.20;99.90;;;;;;5033153;28;20244;-62
2022/01/04 07:48:19;;;;;;;0.90;0.70;;;5.10;99.90;;;;;;5033773;28;20240;-60
2022/01/04 07:50:44;;;;;;;2.07;0.70;;;5.10;99.90;;;;;;5033909;28;20683;-60
2022/01/04 07:53:10;;;;;;;0.70;0.60;;;5.00;99.90;;;;;;5015644;28;20181;-60
2022/01/04 07:55:36;;;;;;;0.83;0.70;;;5.10;99.90;;;;;;5033652;28;20267;-61
2022/01/04 07:58:02;;;;;;;0.90;0.60;;;5.10;99.90;;;;;;5033986;28;20639;-60
2022/01/04 08:00:28;;;;;;;0.63;0.60;;;5.00;99.90;;;;;;5033628;28;20203;-61
2022/01/04 08:02:55;;;;;;;0.97;0.70;;;5.00;99.90;;;;;;5034049;28;20706;-60
2022/01/04 08:05:21;;;;;;;2.97;0.60;;;5.00;99.90;;;;;;5032863;28;20286;-62
2022/01/04 08:07:47;;;;;;;0.70;0.50;;;4.90;99.90;;;;;;5033944;28;20170;-74
2022/01/04 08:10:13;;;;;;;0.73;0.53;;;4.90;99.90;;;;;;5033799;28;20599;-81
2022/01/04 08:12:40;;;;;;;1.07;0.80;;;4.90;99.90;;;;;;5033512;28;20177;-76
2022/01/04 08:15:07;;;;;;;2.43;0.77;;;4.90;99.90;;;;;;5033640;28;20177;-76
2022/01/04 08:17:33;;;;;;;0.70;0.60;;;4.90;99.90;;;;;;5033302;28;20200;-73
2022/01/04 08:20:00;;;;;;;1.87;0.60;;;4.90;99.90;;;;;;5033529;28;20170;-75
2022/01/04 08:22:31;;;;;;;1.33;0.80;;;4.80;99.90;;;;;;5033471;28;20170;-73
2022/01/04 08:25:02;;;;;;;2.13;0.60;;;4.80;99.90;;;;;;5017012;28;20295;-77
2022/01/04 08:27:29;;;;;;;0.97;0.60;;;4.80;99.90;;;;;;5033247;28;20193;-75
2022/01/04 08:29:55;;;;;;;0.90;0.43;;;4.80;99.90;;;;;;5033504;28;20214;-77
2022/01/04 08:32:21;;;;;;;0.63;0.63;;;4.90;99.90;;;;;;5034041;28;20312;-77
2022/01/04 08:34:48;;;;;;;0.97;0.80;;;4.80;99.90;;;;;;5034588;28;20518;-76
2022/01/04 08:37:14;;;;;;;1.23;0.73;;;4.80;99.90;;;;;;5035314;28;20178;-76
2022/01/04 08:39:39;;;;;;;1.90;0.70;;;4.70;99.90;;;;;;5033879;28;20166;-71
2022/01/04 08:42:05;;;;;;;1.47;0.70;;;4.70;99.90;;;;;;5012995;28;20532;-72
2022/01/04 08:44:33;;;;;;;1.00;0.53;;;4.80;99.90;;;;;;5033007;28;20320;-71
2022/01/04 08:46:59;;;;;;;0.80;0.50;;;4.70;99.90;;;;;;5032721;28;20200;-72
2022/01/04 08:49:25;;;;;;;1.27;0.40;;;4.70;99.90;;;;;;5031753;28;20228;-71
2022/01/04 08:51:51;;;;;;;1.30;0.77;;;4.70;99.90;;;;;;5033005;28;20166;-70
2022/01/04 08:54:17;;;;;;;0.97;0.43;;;4.70;99.90;;;;;;5032966;28;20596;-70
2022/01/04 08:56:43;;;;;;;0.97;0.50;;;4.70;99.90;;;;;;5032058;28;20544;-70
2022/01/04 08:59:10;;;;;;;0.93;0.60;;;4.60;99.90;;;;;;5032561;28;20249;-71
2022/01/04 09:01:37;;;;;;;0.97;0.40;;;4.60;99.90;;;;;;5033016;28;20329;-68
2022/01/04 09:04:03;;;;;;;1.03;0.60;;;4.60;99.90;;;;;;5033041;28;20257;-71
2022/01/04 09:06:29;;;;;;;1.17;0.77;;;4.60;99.90;;;;;;5033115;28;20174;-70
2022/01/04 09:08:56;;;;;;;2.30;0.70;;;4.60;99.90;;;;;;5033042;28;20652;-75
2022/01/04 09:11:24;;;;;;;2.90;1.00;;;4.60;99.90;;;;;;5032367;28;20640;-66
2022/01/04 09:13:55;;;;;;;1.27;0.70;;;4.70;99.90;;;;;;5022463;28;20177;-66
2022/01/04 09:19:05;;;;;;;3.27;0.73;;;4.70;99.90;;;;;;5032754;28;20593;-68
2022/01/04 09:21:31;;;;;;;0.70;0.40;;;4.80;99.90;;;;;;5031716;28;20182;-67
2022/01/04 09:23:59;;;;;;;2.53;0.70;;;4.80;99.90;;;;;;5032409;28;20236;-67
2022/01/04 09:26:26;;;;;;;1.93;0.40;;;4.90;99.90;;;;;;5014558;28;20268;-66
2022/01/04 09:28:53;;;;;;;2.97;0.90;;;4.90;99.90;;;;;;5015255;28;20209;-74
2022/01/04 09:31:26;;;;;;;1.23;0.70;;;5.00;99.90;;;;;;5032255;28;20173;-70
2022/01/04 09:33:54;;;;;;;2.83;1.03;;;5.00;99.90;;;;;;5014823;28;20177;-72
2022/01/04 09:36:22;;;;;;;3.10;1.10;;;5.10;99.90;;;;;;5033468;28;20224;-75
2022/01/04 09:38:48;;;;;;;1.10;0.50;;;5.20;99.90;;;;;;5016921;28;20190;-67
2022/01/04 09:41:14;;;;;;;0.83;0.37;;;5.30;99.90;;;;;;5031281;28;20664;-73
2022/01/04 09:43:40;;;;;;;1.47;0.57;;;5.30;99.90;;;;;;5032444;28;20178;-74
2022/01/04 09:46:06;;;;;;;1.73;0.60;;;5.40;99.90;;;;;;5031506;28;20178;-71
2022/01/04 09:48:34;;;;;;;0.90;0.40;;;5.20;99.90;;;;;;5032602;28;20216;-77
2022/01/04 09:51:00;;;;;;;1.23;0.40;;;5.10;99.90;;;;;;5015392;28;20612;-76
2022/01/04 09:53:26;;;;;;;0.70;0.30;;;5.10;99.90;;;;;;5033602;28;20667;-76
2022/01/04 09:55:55;;;;;;;1.03;0.47;;;5.10;99.90;;;;;;5033452;28;20217;-76
2022/01/04 09:58:22;;;;;;;2.87;0.40;;;5.30;99.90;;;;;;5031985;28;20184;-75
2022/01/04 10:00:50;;;;;;;1.53;0.50;;;5.00;99.90;;;;;;5014733;28;20714;-76
2022/01/04 10:03:19;;;;;;;1.27;0.37;;;5.00;99.90;;;;;;5015578;28;20268;-75
2022/01/04 10:05:45;;;;;;;0.80;0.40;;;5.10;99.90;;;;;;5014089;28;20177;-74
2022/01/04 10:08:13;;;;;;;1.13;0.67;;;5.20;99.90;;;;;;5035567;28;20181;-76
2022/01/04 10:10:41;;;;;;;2.87;0.70;;;5.30;99.90;;;;;;5030967;28;20311;-76
2022/01/04 10:13:14;;;;;;;1.57;1.20;;;5.30;99.90;;;;;;5032514;28;20170;-77
2022/01/04 10:15:47;;;;;;;2.37;1.27;;;5.30;99.90;;;;;;5031627;28;20170;-68
2022/01/04 10:18:13;;;;;;;1.83;0.70;;;5.20;99.90;;;;;;5031594;28;20519;-68
2022/01/04 10:20:43;;;;;;;1.20;0.50;;;5.20;99.90;;;;;;5031272;28;20182;-62
2022/01/04 10:23:30;;;;;;;1.67;0.90;;;5.20;99.90;;;;;;5031543;28;20612;-64
2022/01/04 10:26:06;;;;;;;1.13;0.77;;;5.30;99.90;;;;;;5031326;28;20174;-68
2022/01/04 10:28:35;;;;;;;1.67;0.90;;;5.30;99.90;;;;;;5031391;28;20177;-69
2022/01/04 10:31:10;;;;;;;1.37;0.87;;;5.30;99.90;;;;;;5030640;28;20189;-69
2022/01/04 10:33:36;;;;;;;1.60;0.70;;;5.40;99.90;;;;;;5031373;28;20177;-68
2022/01/04 10:36:16;;;;;;;3.90;1.00;;;5.40;99.90;;;;;;5031060;28;20229;-68
2022/01/04 10:38:46;;;;;;;1.00;0.70;;;5.50;99.90;;;;;;5031046;28;20260;-69
2022/01/04 10:41:27;;;;;;;1.80;0.70;;;5.50;99.90;;;;;;5030722;28;20196;-69
2022/01/04 10:44:02;;;;;;;4.20;0.90;;;5.60;99.90;;;;;;5031350;28;20178;-69
2022/01/04 10:46:38;;;;;;;1.40;0.70;;;5.50;99.90;;;;;;5030909;28;20177;-68
2022/01/04 10:49:39;;;;;;;3.37;0.87;;;5.60;99.90;;;;;;5030752;28;20269;-68
2022/01/04 10:52:08;;;;;;;6.10;0.83;;;5.60;99.90;;;;;;5016772;28;20247;-69
2022/01/04 10:54:34;;;;;;;4.83;0.97;;;5.70;99.90;;;;;;5031027;28;20273;-68
2022/01/04 10:57:08;;;;;;;4.10;0.97;;;5.70;99.90;;;;;;5030941;28;20256;-70
2022/01/04 10:59:35;;;;;;;7.77;0.97;;;5.70;99.90;;;;;;5030701;28;20185;-67
2022/01/04 11:02:01;;;;;;;7.93;1.03;;;5.60;99.90;;;;;;5030978;28;20177;-66
2022/01/04 11:04:26;;;;;;;6.77;1.13;;;5.70;99.90;;;;;;5030910;28;20664;-65
2022/01/04 11:07:03;;;;;;;10.13;1.13;;;5.70;99.90;;;;;;5031052;28;20181;-65
2022/01/04 11:09:32;;;;;;;3.00;0.90;;;5.70;99.90;;;;;;5030408;28;20296;-65
2022/01/04 11:11:58;;;;;;;6.87;1.10;;;5.70;99.90;;;;;;5029180;28;22896;-65
2022/01/04 11:14:25;;;;;;;5.93;0.97;;;5.70;99.90;;;;;;5031296;28;20194;-65
2022/01/04 11:16:52;;;;;;;3.83;0.77;;;5.70;99.90;;;;;;5030511;28;20182;-65
2022/01/04 11:19:19;;;;;;;6.53;0.80;;;5.80;99.90;;;;;;5030400;28;20308;-65
2022/01/04 11:21:45;;;;;;;6.67;1.23;;;5.70;99.90;;;;;;5030647;28;20174;-64
2022/01/04 11:24:16;;;;;;;6.20;1.60;;;5.80;99.90;;;;;;5030718;28;20181;-64
2022/01/04 11:26:47;;;;;;;8.60;1.23;;;5.90;99.90;;;;;;5015554;28;20532;-64
2022/01/04 11:29:17;;;;;;;8.37;1.30;;;6.00;99.90;;;;;;5013457;28;20194;-64
2022/01/04 11:31:56;;;;;;;4.53;0.87;;;6.00;99.90;;;;;;5030495;28;20186;-64
2022/01/04 11:34:49;;;;;;;5.70;1.20;;;6.30;99.90;;;;;;5030329;28;20648;-64
2022/01/04 11:37:20;;;;;;;7.37;1.10;;;6.60;99.90;;;;;;5028813;28;20249;-64
2022/01/04 11:39:46;;;;;;;6.17;1.40;;;6.50;99.90;;;;;;5030474;28;20174;-64
2022/01/04 11:42:31;;;;;;;5.90;1.60;;;6.80;99.90;;;;;;5030684;28;20201;-64
2022/01/04 11:44:58;;;;;;;8.13;1.70;;;6.70;99.90;;;;;;5012367;28;20170;-64
2022/01/04 11:47:27;;;;;;;8.17;1.60;;;7.10;99.90;;;;;;5029310;28;20178;-64
2022/01/04 11:50:16;;;;;;;6.67;1.10;;;7.00;99.90;;;;;;5030016;28;20217;-65
2022/01/04 11:52:51;;;;;;;3.37;1.13;;;6.70;99.90;;;;;;5030502;28;20165;-64
2022/01/04 11:55:31;;;;;;;5.63;1.07;;;6.80;99.90;;;;;;5023381;28;20541;-64
2022/01/04 11:58:13;;;;;;;10.50;1.60;;;6.80;99.90;;;;;;5030371;28;20578;-65
2022/01/04 12:00:45;;;;;;;5.73;1.13;;;6.80;99.90;;;;;;5030172;28;20162;-64
2022/01/04 12:03:18;;;;;;;10.27;1.73;;;7.10;99.90;;;;;;5029619;28;20671;-62
2022/01/04 12:05:56;;;;;;;5.03;1.23;;;7.40;99.90;;;;;;5016029;28;20659;-64
2022/01/04 12:08:32;;;;;;;7.20;1.37;;;8.10;99.90;;;;;;5033300;28;20257;-63
2022/01/04 12:10:57;;;;;;;7.67;1.30;;;8.70;99.90;;;;;;5030975;28;20205;-64
2022/01/04 12:13:25;;;;;;;10.67;1.80;;;9.10;99.90;;;;;;5033921;28;20174;-63
2022/01/04 12:15:57;;;;;;;7.97;1.50;;;9.50;99.90;;;;;;5033922;28;20260;-63
2022/01/04 12:18:23;;;;;;;5.13;1.07;;;8.90;99.90;;;;;;5033837;28;20177;-62
2022/01/04 12:20:55;;;;;;;9.53;1.53;;;8.80;99.90;;;;;;5033661;28;20678;-63
2022/01/04 12:23:26;;;;;;;6.83;1.43;;;8.50;99.90;;;;;;5033776;28;20185;-63
2022/01/04 12:26:12;;;;;;;9.80;1.30;;;7.90;99.90;;;;;;5033574;28;20177;-63
2022/01/04 12:28:55;;;;;;;8.10;1.50;;;8.60;99.90;;;;;;5032850;28;20178;-67
2022/01/04 12:31:24;;;;;;;7.57;1.43;;;10.10;99.90;;;;;;5014706;28;20536;-69
2022/01/04 12:33:54;;;;;;;7.30;1.63;;;9.70;99.90;;;;;;5015996;28;20182;-70
2022/01/04 12:36:43;;;;;;;8.13;1.30;;;9.60;99.90;;;;;;5033032;28;20687;-65
2022/01/04 12:39:21;;;;;;;8.87;1.73;;;10.10;99.90;;;;;;5030425;28;20240;-66
2022/01/04 12:41:50;;;;;;;9.13;1.57;;;10.20;99.90;;;;;;5030880;28;20264;-64
2022/01/04 12:44:28;;;;;;;6.88;1.63;;;10.40;99.90;;;;;;5032780;28;20166;-64
2022/01/04 12:46:55;;;;;;;8.95;2.00;;;10.40;99.90;;;;;;5032774;28;20177;-66
2022/01/04 12:49:23;;;;;;;12.85;1.98;;;10.80;99.90;;;;;;5030107;28;20240;-66
2022/01/04 12:51:53;;;;;;;9.10;1.92;;;10.80;99.90;;;;;;5041576;28;20173;-66
2022/01/04 12:54:23;;;;;;;7.32;1.70;;;10.20;99.90;;;;;;5033085;28;20182;-66
2022/01/04 12:56:52;;;;;;;8.98;2.00;;;10.40;99.90;;;;;;5032741;28;20644;-64
2022/01/04 12:59:23;;;;;;;11.02;1.80;;;10.30;99.90;;;;;;5033056;28;20248;-65
2022/01/04 13:01:54;;;;;;;9.70;1.80;;;10.20;99.90;;;;;;5032710;28;20248;-65
2022/01/04 13:04:22;;;;;;;7.67;1.53;;;9.30;99.90;;;;;;5032736;28;20198;-65